Time;durP1;ratioP1;P1;durP2;ratioP2;P2;SDS_P1;SDS_P2;PMS_P1;PMS_P2;Temp;Humidity;BMP_temperature;BMP_pressure;BME280_temperature;BME280_humidity;BME280_pressure;Samples;Min_cycle;Max_cycle;Signal;HPM_P1;HPM_P2
2022/11/23 00:01:27;;;;;;;46.58;43.63;;;;;;;9.42;100.00;99982.09;5033430;28;20041;-83
2022/11/23 00:03:57;;;;;;;46.75;43.83;;;;;;;9.47;100.00;99968.97;5026124;28;20042;-85
2022/11/23 00:06:25;;;;;;;46.10;43.40;;;;;;;9.56;100.00;99970.31;5025801;28;20053;-86
2022/11/23 00:08:53;;;;;;;45.83;42.90;;;;;;;9.54;100.00;99959.16;5030952;28;20058;-85
2022/11/23 00:11:21;;;;;;;46.15;43.38;;;;;;;9.61;100.00;99966.00;5029613;28;20460;-82
2022/11/23 00:13:48;;;;;;;45.70;42.65;;;;;;;9.54;100.00;99967.91;5024454;28;20045;-85
2022/11/23 00:16:18;;;;;;;43.60;40.80;;;;;;;9.55;100.00;99964.22;5029389;28;20041;-85
2022/11/23 00:18:45;;;;;;;40.28;37.78;;;;;;;9.58;100.00;99957.69;5029999;28;20049;-84
2022/11/23 00:21:14;;;;;;;49.22;46.00;;;;;;;9.47;100.00;99947.78;5032698;28;20045;-88
2022/11/23 00:23:42;;;;;;;50.90;47.83;;;;;;;9.33;100.00;99949.75;5030973;28;20127;-85
2022/11/23 00:26:09;;;;;;;53.75;50.38;;;;;;;9.38;100.00;99941.97;5031551;28;20041;-86
2022/11/23 00:28:38;;;;;;;46.42;43.55;;;;;;;9.42;100.00;99937.84;5031665;28;20056;-85
2022/11/23 00:31:05;;;;;;;53.53;50.22;;;;;;;9.44;100.00;99948.22;5031854;28;20054;-86
2022/11/23 00:33:32;;;;;;;53.28;49.78;;;;;;;9.43;100.00;99933.34;5034916;28;20046;-87
2022/11/23 00:36:00;;;;;;;52.22;49.00;;;;;;;9.54;100.00;99940.59;5029219;28;20115;-86
2022/11/23 00:38:28;;;;;;;46.85;43.58;;;;;;;9.57;100.00;99943.63;5034221;28;20059;-83
2022/11/23 00:41:00;;;;;;;54.40;50.28;;;;;;;9.50;100.00;99948.19;5035153;28;20041;-86
2022/11/23 00:43:27;;;;;;;63.80;59.22;;;;;;;9.63;100.00;99947.25;5031600;28;20163;-86
2022/11/23 00:46:05;;;;;;;62.45;57.38;;;;;;;9.78;100.00;99938.94;5029913;28;20041;-86
2022/11/23 00:48:32;;;;;;;83.32;75.00;;;;;;;9.72;100.00;99945.13;5029217;28;20049;-85
2022/11/23 00:51:00;;;;;;;135.75;102.40;;;;;;;9.73;100.00;99941.44;5034104;28;20119;-86
2022/11/23 00:53:28;;;;;;;68.28;63.60;;;;;;;9.69;100.00;99953.50;5032470;28;20053;-84
2022/11/23 00:55:56;;;;;;;63.63;59.10;;;;;;;9.71;100.00;99951.44;5030941;28;20049;-84
2022/11/23 00:58:23;;;;;;;58.30;54.60;;;;;;;9.55;100.00;99950.97;5031206;28;20120;-83
2022/11/23 01:00:51;;;;;;;76.70;71.43;;;;;;;9.49;100.00;99948.38;5048311;23;20083;-94
2022/11/23 01:03:17;;;;;;;80.78;73.63;;;;;;;9.52;100.00;99945.28;5052699;28;20049;-93
2022/11/23 01:05:49;;;;;;;67.15;62.38;;;;;;;9.52;100.00;99937.34;5046483;28;20045;-94
2022/11/23 01:08:16;;;;;;;58.75;54.70;;;;;;;9.70;100.00;99932.06;5058705;28;20052;-93
2022/11/23 01:10:44;;;;;;;61.72;57.45;;;;;;;9.78;100.00;99925.69;5053035;28;20046;-93
2022/11/23 01:13:11;;;;;;;56.95;53.05;;;;;;;10.02;100.00;99924.81;5056631;28;20053;-93
2022/11/23 01:15:38;;;;;;;58.83;55.00;;;;;;;9.98;100.00;99902.38;5062793;28;20041;-94
2022/11/23 01:18:06;;;;;;;62.03;57.70;;;;;;;10.02;100.00;99900.94;5056375;28;20522;-93
2022/11/23 01:20:35;;;;;;;70.10;65.53;;;;;;;10.16;100.00;99892.78;5051852;28;20044;-93
2022/11/23 01:23:01;;;;;;;68.50;63.75;;;;;;;10.14;100.00;99876.31;5063700;28;20045;-93
2022/11/23 01:25:29;;;;;;;62.88;58.53;;;;;;;10.23;100.00;99886.38;5058907;28;20045;-93
2022/11/23 01:27:58;;;;;;;59.08;55.25;;;;;;;10.24;100.00;99872.06;5058241;28;20543;-93
2022/11/23 01:30:25;;;;;;;79.55;74.05;;;;;;;10.21;100.00;99872.53;5058117;28;20053;-93
2022/11/23 01:32:51;;;;;;;74.93;70.13;;;;;;;10.20;100.00;99860.28;5057413;28;20053;-93
2022/11/23 01:35:18;;;;;;;57.53;53.03;;;;;;;10.21;100.00;99866.41;5054299;28;20049;-93
2022/11/23 01:37:46;;;;;;;67.70;62.58;;;;;;;10.16;100.00;99868.91;5058430;28;20497;-94
2022/11/23 01:40:14;;;;;;;68.20;63.35;;;;;;;10.26;100.00;99867.41;5055826;28;20045;-93
2022/11/23 01:42:52;;;;;;;78.72;72.75;;;;;;;10.26;100.00;99863.91;5055345;28;20099;-93
2022/11/23 01:45:39;;;;;;;54.60;50.88;;;;;;;10.23;100.00;99865.16;5060775;28;20056;-93
2022/11/23 01:48:11;;;;;;;54.67;51.17;;;;;;;10.25;100.00;99865.72;5057703;28;20049;-90
2022/11/23 01:50:39;;;;;;;55.22;51.53;;;;;;;10.14;100.00;99876.31;5052434;28;20068;-93
2022/11/23 01:53:08;;;;;;;63.75;59.03;;;;;;;10.16;100.00;99868.91;5063033;28;20049;-93
2022/11/23 01:55:37;;;;;;;56.40;52.30;;;;;;;10.17;100.00;99863.41;5053546;28;20045;-94
2022/11/23 01:58:06;;;;;;;58.17;53.72;;;;;;;10.22;100.00;99866.16;5057871;28;20056;-94
2022/11/23 02:00:38;;;;;;;54.53;50.83;;;;;;;10.27;100.00;99862.88;5053278;28;20481;-93
2022/11/23 02:03:06;;;;;;;42.17;39.10;;;;;;;10.21;100.00;99853.94;5057871;28;20052;-93
2022/11/23 02:05:38;;;;;;;50.33;46.95;;;;;;;10.19;100.00;99852.53;5048153;28;20069;-93
2022/11/23 02:08:06;;;;;;;56.70;53.03;;;;;;;10.16;100.00;99847.69;5062219;28;20580;-93
2022/11/23 02:10:42;;;;;;;55.58;51.88;;;;;;;10.25;100.00;99849.81;5052955;28;20568;-93
2022/11/23 02:13:13;;;;;;;46.55;43.33;;;;;;;10.11;100.00;99840.41;5057394;28;20053;-93
2022/11/23 02:15:42;;;;;;;49.00;45.42;;;;;;;10.14;100.00;99833.84;5061202;28;20060;-93
2022/11/23 02:18:21;;;;;;;48.70;45.17;;;;;;;10.12;100.00;99831.41;5058799;28;20049;-93
2022/11/23 02:20:53;;;;;;;51.97;48.38;;;;;;;9.99;100.00;99821.78;5052796;28;20049;-93
2022/11/23 02:23:34;;;;;;;41.55;38.40;;;;;;;10.04;100.00;99823.75;5061376;28;20053;-94
2022/11/23 02:26:08;;;;;;;49.72;46.05;;;;;;;9.95;100.00;99796.72;5051079;28;20049;-93
2022/11/23 02:28:41;;;;;;;50.10;46.50;;;;;;;9.93;100.00;99798.81;5053773;28;20538;-92
2022/11/23 02:31:12;;;;;;;45.20;41.90;;;;;;;9.93;100.00;99800.66;5053420;28;20053;-92
2022/11/23 02:33:39;;;;;;;42.65;39.33;;;;;;;9.91;100.00;99792.91;5050532;28;20052;-93
2022/11/23 02:36:34;;;;;;;45.85;42.45;;;;;;;10.03;100.00;99788.47;5053445;28;20045;-93
2022/11/23 02:39:04;;;;;;;52.00;48.40;;;;;;;10.05;100.00;99789.06;5051512;28;20045;-94
2022/11/23 02:41:42;;;;;;;47.90;44.58;;;;;;;10.10;100.00;99777.75;5046518;28;20502;-93
2022/11/23 02:44:29;;;;;;;53.58;49.88;;;;;;;10.16;100.00;99782.16;5050934;28;20430;-93
2022/11/23 02:46:57;;;;;;;49.28;45.38;;;;;;;10.11;100.00;99794.50;5054142;28;20087;-93
2022/11/23 02:49:23;;;;;;;51.45;47.17;;;;;;;10.02;100.00;99784.19;5045828;28;20057;-93
2022/11/23 02:51:55;;;;;;;49.83;45.25;;;;;;;10.11;100.00;99800.63;5053744;28;20482;-93
2022/11/23 02:54:22;;;;;;;53.15;49.05;;;;;;;10.11;100.00;99797.16;5055170;28;20072;-93
2022/11/23 02:56:54;;;;;;;53.78;49.90;;;;;;;10.15;100.00;99790.34;5049666;28;20460;-93
2022/11/23 02:59:21;;;;;;;48.15;44.60;;;;;;;10.14;100.00;99802.00;5051017;28;20479;-93
2022/11/23 03:01:48;;;;;;;48.90;45.20;;;;;;;10.20;100.00;99812.53;5046701;22;20045;-83
2022/11/23 03:04:15;;;;;;;50.28;46.50;;;;;;;10.18;100.00;99827.84;5026101;28;20524;-82
2022/11/23 03:06:42;;;;;;;56.38;51.97;;;;;;;10.18;100.00;99819.91;5029957;28;20548;-82
2022/11/23 03:09:09;;;;;;;50.70;46.65;;;;;;;10.31;100.00;99811.78;5034426;28;20081;-82
2022/11/23 03:11:36;;;;;;;54.90;50.85;;;;;;;10.20;100.00;99812.53;5032470;28;20045;-81
2022/11/23 03:14:04;;;;;;;54.30;50.20;;;;;;;10.18;100.00;99796.00;5034324;28;20041;-85
2022/11/23 03:16:32;;;;;;;47.58;43.90;;;;;;;10.13;100.00;99798.53;5032808;28;20742;-83
2022/11/23 03:18:59;;;;;;;48.17;44.17;;;;;;;10.11;100.00;99794.50;5027373;28;20056;-81
2022/11/23 03:21:26;;;;;;;49.47;45.78;;;;;;;10.06;100.00;99785.34;5033824;28;20171;-84
2022/11/23 03:23:53;;;;;;;45.13;41.67;;;;;;;10.09;100.00;99789.41;5030121;28;20041;-82
2022/11/23 03:26:20;;;;;;;51.85;47.53;;;;;;;10.11;100.00;99789.19;5032671;28;20053;-84
2022/11/23 03:28:47;;;;;;;45.22;41.92;;;;;;;10.07;100.00;99786.16;5034073;28;20114;-84
2022/11/23 03:31:15;;;;;;;52.70;48.70;;;;;;;10.06;100.00;99789.84;5031835;28;20041;-82
2022/11/23 03:33:42;;;;;;;51.08;47.45;;;;;;;10.17;100.00;99789.09;5031926;28;20488;-84
2022/11/23 03:36:09;;;;;;;46.25;42.80;;;;;;;10.22;100.00;99791.88;5032382;28;20045;-83
2022/11/23 03:38:35;;;;;;;42.80;39.58;;;;;;;10.20;100.00;99801.13;5033718;28;20052;-83
2022/11/23 03:41:02;;;;;;;47.85;44.22;;;;;;;10.20;100.00;99801.91;5030022;28;20107;-84
2022/11/23 03:43:29;;;;;;;48.90;45.47;;;;;;;10.18;100.00;99803.97;5031856;28;20064;-83
2022/11/23 03:45:55;;;;;;;40.55;37.42;;;;;;;10.15;100.00;99793.00;5024536;28;20046;-84
2022/11/23 03:48:24;;;;;;;38.85;35.90;;;;;;;10.11;100.00;99787.34;5031450;28;20137;-83
2022/11/23 03:50:50;;;;;;;38.78;35.95;;;;;;;10.20;100.00;99778.03;5034273;28;20107;-83
2022/11/23 03:53:17;;;;;;;41.08;37.63;;;;;;;10.09;100.00;99773.50;5027607;28;20049;-82
2022/11/23 03:55:46;;;;;;;39.78;36.63;;;;;;;10.17;100.00;99770.53;5031677;28;20413;-81
2022/11/23 03:58:13;;;;;;;39.38;36.47;;;;;;;10.23;100.00;99772.28;5028618;28;20045;-85
2022/11/23 04:00:40;;;;;;;44.30;40.53;;;;;;;10.20;100.00;99777.22;5034820;28;20057;-82
2022/11/23 04:03:07;;;;;;;42.88;39.45;;;;;;;10.13;100.00;99765.88;5033702;28;20045;-83
2022/11/23 04:05:35;;;;;;;43.83;40.15;;;;;;;10.17;100.00;99773.19;5035502;28;20470;-82
2022/11/23 04:08:02;;;;;;;39.35;36.55;;;;;;;10.09;100.00;99771.63;5027097;28;20037;-83
2022/11/23 04:10:29;;;;;;;38.55;35.85;;;;;;;10.09;100.00;99769.00;5031644;28;20107;-84
2022/11/23 04:12:56;;;;;;;41.80;38.28;;;;;;;10.07;100.00;99765.75;5030443;28;20053;-81
2022/11/23 04:15:23;;;;;;;37.20;34.45;;;;;;;10.08;100.00;99758.63;5026287;28;20111;-82
2022/11/23 04:17:50;;;;;;;40.42;37.63;;;;;;;10.12;100.00;99764.28;5031492;28;20038;-83
2022/11/23 04:20:16;;;;;;;40.05;37.45;;;;;;;10.08;100.00;99750.66;5034384;28;20050;-83
2022/11/23 04:22:45;;;;;;;39.30;36.30;;;;;;;10.09;100.00;99752.25;5028285;28;20107;-82
2022/11/23 04:25:11;;;;;;;36.58;33.72;;;;;;;10.07;100.00;99743.72;5033373;28;20041;-83
2022/11/23 04:27:38;;;;;;;42.55;39.65;;;;;;;10.06;100.00;99742.91;5032075;28;20066;-84
2022/11/23 04:30:06;;;;;;;46.40;43.30;;;;;;;10.16;100.00;99747.66;5033774;28;20579;-82
2022/11/23 04:32:33;;;;;;;44.47;41.38;;;;;;;10.12;100.00;99738.53;5033520;28;20045;-84
2022/11/23 04:34:59;;;;;;;47.83;43.58;;;;;;;10.11;100.00;99747.56;5034040;28;20107;-84
2022/11/23 04:37:26;;;;;;;44.78;41.15;;;;;;;10.14;100.00;99748.94;5026704;28;20041;-84
2022/11/23 04:39:54;;;;;;;46.40;42.42;;;;;;;10.21;100.00;99747.00;5027008;28;20037;-84
2022/11/23 04:42:21;;;;;;;46.03;42.08;;;;;;;10.17;100.00;99754.59;5029287;28;20376;-84
2022/11/23 04:44:48;;;;;;;42.58;39.67;;;;;;;10.15;100.00;99750.56;5028368;28;20046;-84
2022/11/23 04:47:15;;;;;;;40.10;37.47;;;;;;;10.06;100.00;99753.53;5030802;28;20049;-81
2022/11/23 04:49:41;;;;;;;39.53;36.72;;;;;;;10.08;100.00;99755.97;5032230;28;20045;-83
2022/11/23 04:52:08;;;;;;;42.15;39.05;;;;;;;10.02;100.00;99762.16;5026685;28;20057;-82
2022/11/23 04:54:35;;;;;;;42.55;39.33;;;;;;;10.05;100.00;99756.41;5028505;28;20061;-82
2022/11/23 04:57:03;;;;;;;37.53;34.53;;;;;;;10.06;100.00;99760.69;5029208;28;20134;-82
2022/11/23 04:59:30;;;;;;;40.72;37.63;;;;;;;10.00;100.00;99759.72;5032353;28;20457;-84
2022/11/23 05:01:57;;;;;;;39.63;36.53;;;;;;;9.99;100.00;99760.78;5028476;28;20050;-82
2022/11/23 05:04:24;;;;;;;48.13;44.70;;;;;;;9.97;100.00;99759.38;5030351;28;20049;-85
2022/11/23 05:06:50;;;;;;;42.00;39.30;;;;;;;9.95;100.00;99761.44;5024607;28;20049;-85
2022/11/23 05:09:18;;;;;;;45.45;42.42;;;;;;;10.11;100.00;99754.72;5029476;28;20046;-85
2022/11/23 05:11:44;;;;;;;43.75;40.42;;;;;;;10.00;100.00;99751.78;5024374;28;20124;-84
2022/11/23 05:14:13;;;;;;;42.10;38.78;;;;;;;10.02;100.00;99755.00;5027637;28;20041;-81
2022/11/23 05:16:40;;;;;;;40.80;37.78;;;;;;;10.09;100.00;99754.91;5032113;28;20069;-84
2022/11/23 05:19:07;;;;;;;38.53;35.22;;;;;;;10.08;100.00;99755.97;5030413;28;20439;-82
2022/11/23 05:21:33;;;;;;;44.97;40.70;;;;;;;10.05;100.00;99753.75;5028613;28;20041;-84
2022/11/23 05:24:01;;;;;;;42.85;39.85;;;;;;;10.09;100.00;99755.72;5028613;28;20049;-84
2022/11/23 05:26:28;;;;;;;44.03;40.45;;;;;;;10.03;100.00;99753.16;5029162;28;20060;-83
2022/11/23 05:28:55;;;;;;;41.25;38.15;;;;;;;10.00;100.00;99748.31;5030936;28;20432;-82
2022/11/23 05:31:23;;;;;;;39.28;36.20;;;;;;;9.97;100.00;99751.41;5026072;28;20045;-85
2022/11/23 05:33:49;;;;;;;41.63;38.47;;;;;;;9.88;100.00;99750.91;5020587;28;20050;-82
2022/11/23 05:36:16;;;;;;;36.80;33.90;;;;;;;9.89;100.00;99749.88;5027455;28;20057;-83
2022/11/23 05:38:43;;;;;;;34.08;31.40;;;;;;;9.79;100.00;99746.97;5031713;28;20079;-84
2022/11/23 05:41:10;;;;;;;34.90;32.38;;;;;;;9.75;100.00;99748.44;5028255;28;20061;-82
2022/11/23 05:43:36;;;;;;;36.30;33.80;;;;;;;9.59;100.00;99755.16;5029258;28;20053;-84
2022/11/23 05:46:03;;;;;;;33.95;31.23;;;;;;;9.62;100.00;99752.88;5025318;28;20041;-85
2022/11/23 05:48:31;;;;;;;33.72;31.27;;;;;;;9.59;100.00;99750.69;5024987;28;20057;-82
2022/11/23 05:50:58;;;;;;;35.65;32.92;;;;;;;9.44;100.00;99757.38;5018103;28;20119;-83
2022/11/23 05:53:25;;;;;;;36.25;33.78;;;;;;;9.39;100.00;99760.69;5024109;28;20050;-83
2022/11/23 05:55:51;;;;;;;32.65;30.25;;;;;;;9.52;100.00;99773.00;5025460;28;20126;-82
2022/11/23 05:58:18;;;;;;;35.80;33.35;;;;;;;9.66;100.00;99761.19;5019381;28;20053;-83
2022/11/23 06:00:45;;;;;;;36.72;33.75;;;;;;;9.59;100.00;99752.50;5025639;28;20474;-84
2022/11/23 06:03:12;;;;;;;33.65;31.25;;;;;;;9.72;100.00;99755.00;5019782;28;20441;-82
2022/11/23 06:05:40;;;;;;;32.17;29.88;;;;;;;9.65;100.00;99751.59;5027840;28;20053;-84
2022/11/23 06:08:12;;;;;;;37.25;34.60;;;;;;;9.70;100.00;99753.59;5029564;28;20107;-84
2022/11/23 06:10:41;;;;;;;38.65;35.75;;;;;;;9.72;100.00;99756.84;5028252;28;20127;-84
2022/11/23 06:13:08;;;;;;;33.75;30.83;;;;;;;9.52;100.00;99755.22;5023141;28;20049;-84
2022/11/23 06:15:37;;;;;;;32.17;29.70;;;;;;;9.62;100.00;99766.16;5013715;28;20054;-81
2022/11/23 06:18:04;;;;;;;36.58;33.92;;;;;;;9.58;100.00;99767.59;5021534;28;20045;-81
2022/11/23 06:20:31;;;;;;;36.58;34.15;;;;;;;9.59;100.00;99768.41;5033032;28;20107;-82
2022/11/23 06:22:59;;;;;;;35.28;32.47;;;;;;;9.71;100.00;99771.13;5032149;28;20045;-83
2022/11/23 06:25:26;;;;;;;38.17;35.47;;;;;;;9.73;100.00;99782.31;5029537;28;20049;-82
2022/11/23 06:27:54;;;;;;;37.58;34.85;;;;;;;9.68;100.00;99787.47;5027518;28;20539;-84
2022/11/23 06:30:21;;;;;;;36.00;33.20;;;;;;;9.64;100.00;99782.63;5029430;28;20574;-84
2022/11/23 06:32:51;;;;;;;36.13;33.20;;;;;;;9.71;100.00;99782.53;5025267;28;20049;-84
2022/11/23 06:35:19;;;;;;;39.13;36.13;;;;;;;9.73;100.00;99790.28;5031865;28;20041;-83
2022/11/23 06:37:48;;;;;;;39.75;36.63;;;;;;;9.72;100.00;99781.53;5025374;28;20103;-83
2022/11/23 06:40:17;;;;;;;34.40;31.70;;;;;;;9.75;100.00;99785.56;5023252;28;20398;-84
2022/11/23 06:42:44;;;;;;;35.47;32.50;;;;;;;9.68;100.00;99777.69;5030622;28;20050;-81
2022/11/23 06:45:11;;;;;;;43.45;39.67;;;;;;;9.71;100.00;99781.72;5033097;28;20056;-83
2022/11/23 06:47:37;;;;;;;41.38;37.88;;;;;;;9.69;100.00;99781.16;5034422;28;20104;-84
2022/11/23 06:50:05;;;;;;;37.65;34.00;;;;;;;9.60;100.00;99789.41;5035489;28;20461;-82
2022/11/23 06:52:32;;;;;;;39.38;36.30;;;;;;;9.65;100.00;99788.72;5028554;28;20057;-82
2022/11/23 06:54:59;;;;;;;39.90;36.70;;;;;;;9.63;100.00;99780.22;5023958;28;20046;-83
2022/11/23 06:57:27;;;;;;;37.63;34.65;;;;;;;9.68;100.00;99787.47;5028293;28;20111;-86
2022/11/23 06:59:54;;;;;;;37.25;33.80;;;;;;;9.75;100.00;99783.72;5033566;28;20103;-84
2022/11/23 07:02:21;;;;;;;41.22;37.83;;;;;;;9.79;100.00;99776.94;5027961;28;20115;-82
2022/11/23 07:04:47;;;;;;;43.00;39.60;;;;;;;9.80;100.00;99767.13;5034620;28;20057;-81
2022/11/23 07:07:14;;;;;;;39.75;36.38;;;;;;;9.77;100.00;99767.56;5026902;28;20053;-85
2022/11/23 07:09:41;;;;;;;37.88;34.88;;;;;;;9.82;100.00;99771.19;5024544;28;20041;-85
2022/11/23 07:12:08;;;;;;;41.47;38.08;;;;;;;10.01;100.00;99760.53;5033572;28;20111;-83
2022/11/23 07:14:36;;;;;;;42.70;39.08;;;;;;;9.98;100.00;99750.38;5034486;28;20049;-84
2022/11/23 07:17:03;;;;;;;40.15;36.33;;;;;;;9.96;100.00;99745.31;5031439;28;20045;-84
2022/11/23 07:19:29;;;;;;;42.05;38.55;;;;;;;9.93;100.00;99753.72;5031413;28;20042;-82
2022/11/23 07:21:56;;;;;;;41.90;38.40;;;;;;;10.05;100.00;99757.22;5027231;28;20049;-85
2022/11/23 07:24:23;;;;;;;42.45;38.35;;;;;;;10.18;100.00;99758.06;5031918;28;20057;-81
2022/11/23 07:26:50;;;;;;;42.05;38.35;;;;;;;10.19;100.00;99744.56;5033512;28;20053;-82
2022/11/23 07:29:17;;;;;;;48.42;44.17;;;;;;;10.27;100.00;99754.88;5029360;28;20457;-80
2022/11/23 07:31:45;;;;;;;52.92;47.70;;;;;;;10.19;100.00;99767.63;5031738;28;20397;-82
2022/11/23 07:34:12;;;;;;;48.65;43.55;;;;;;;10.11;100.00;99765.31;5029216;28;20042;-84
2022/11/23 07:36:39;;;;;;;50.83;45.85;;;;;;;10.22;100.00;99770.63;5028489;28;20516;-84
2022/11/23 07:39:08;;;;;;;98.85;74.63;;;;;;;10.37;100.00;99775.56;5026483;28;20112;-84
2022/11/23 07:41:41;;;;;;;118.20;82.57;;;;;;;10.34;100.00;99773.34;5031528;28;21761;-84
2022/11/23 07:44:15;;;;;;;91.88;69.28;;;;;;;10.42;100.00;99770.38;5025670;28;20123;-84
2022/11/23 07:46:42;;;;;;;71.30;58.10;;;;;;;10.32;100.00;99775.44;5034872;28;20045;-80
2022/11/23 07:49:10;;;;;;;57.85;51.67;;;;;;;10.37;100.00;99775.56;5031661;28;20124;-81
2022/11/23 07:51:37;;;;;;;46.28;41.78;;;;;;;10.42;100.00;99780.19;5032645;28;20080;-84
2022/11/23 07:54:05;;;;;;;57.05;51.35;;;;;;;10.55;100.00;99782.63;5031306;28;20050;-85
2022/11/23 07:56:31;;;;;;;48.45;43.75;;;;;;;10.63;100.00;99781.50;5033041;28;20440;-82
2022/11/23 07:58:58;;;;;;;41.30;37.60;;;;;;;10.64;100.00;99791.88;5032420;28;20466;-81
2022/11/23 08:01:25;;;;;;;38.40;35.35;;;;;;;10.60;100.00;99809.31;5027953;28;20533;-84
2022/11/23 08:03:52;;;;;;;43.45;39.78;;;;;;;10.70;100.00;99809.56;5028334;28;20045;-82
2022/11/23 08:06:21;;;;;;;46.00;42.08;;;;;;;10.74;100.00;99821.38;5029955;28;20057;-82
2022/11/23 08:08:49;;;;;;;40.78;37.15;;;;;;;10.77;100.00;99826.22;5035766;28;20053;-81
2022/11/23 08:11:17;;;;;;;40.25;36.80;;;;;;;10.82;100.00;99830.84;5034948;28;20061;-84
2022/11/23 08:13:46;;;;;;;50.60;46.00;;;;;;;10.91;100.00;99839.28;5035466;28;20119;-82
2022/11/23 08:16:14;;;;;;;49.90;45.08;;;;;;;10.88;100.00;99837.09;5034712;28;20119;-84
2022/11/23 08:18:43;;;;;;;53.80;48.40;;;;;;;10.80;100.00;99837.41;5035861;28;20461;-81
2022/11/23 08:21:15;;;;;;;53.13;47.85;;;;;;;10.72;100.00;99823.44;5016575;28;20050;-84
2022/11/23 08:23:44;;;;;;;;;;;;;;;10.73;100.00;99827.69;5016244;28;20061;-82
2022/11/23 08:26:11;;;;;;;83.18;57.90;;;;;;;10.62;100.00;99830.31;5025463;28;19984;-84
2022/11/23 08:28:38;;;;;;;83.65;59.80;;;;;;;10.65;100.00;99825.41;5025906;28;20046;-81
2022/11/23 08:31:07;;;;;;;77.47;62.65;;;;;;;10.69;100.00;99831.84;5019151;28;20474;-84
2022/11/23 08:33:34;;;;;;;80.68;61.70;;;;;;;10.53;100.00;99825.38;5022145;28;20059;-84
2022/11/23 08:36:04;;;;;;;74.03;58.28;;;;;;;10.52;100.00;99828.22;5035141;28;20053;-84
2022/11/23 08:38:30;;;;;;;82.40;63.03;;;;;;;10.48;100.00;99827.88;5026795;28;20129;-81
2022/11/23 08:40:59;;;;;;;80.60;63.35;;;;;;;10.50;100.00;99822.34;5023327;28;20482;-82
2022/11/23 08:43:26;;;;;;;78.35;58.45;;;;;;;10.55;100.00;99822.47;5030099;28;20084;-82
2022/11/23 08:45:54;;;;;;;77.07;59.53;;;;;;;10.59;100.00;99823.66;5024260;28;20060;-83
2022/11/23 08:48:21;;;;;;;65.68;56.75;;;;;;;10.61;100.00;99826.06;5025166;28;20057;-84
2022/11/23 08:50:48;;;;;;;63.58;56.63;;;;;;;10.82;100.00;99830.03;5015774;28;20399;-83
2022/11/23 08:53:14;;;;;;;64.97;56.05;;;;;;;10.88;100.00;99819.28;5018584;28;20061;-81
2022/11/23 08:55:41;;;;;;;57.58;51.40;;;;;;;10.85;100.00;99808.31;5029629;28;20045;-81
2022/11/23 08:58:10;;;;;;;56.28;49.97;;;;;;;10.85;100.00;99810.97;5024855;28;20195;-83
2022/11/23 09:00:37;;;;;;;51.80;46.47;;;;;;;10.76;100.00;99808.66;5022619;28;20045;-84
2022/11/23 09:03:04;;;;;;;51.35;46.08;;;;;;;10.95;100.00;99804.06;5027282;28;20045;-83
2022/11/23 09:05:31;;;;;;;59.65;53.60;;;;;;;11.07;100.00;99797.94;5027419;28;20049;-81
2022/11/23 09:08:00;;;;;;;59.22;52.97;;;;;;;11.13;100.00;99803.13;5023050;28;20457;-80
2022/11/23 09:10:27;;;;;;;81.47;60.92;;;;;;;11.14;100.00;99796.78;5024083;28;20438;-80
2022/11/23 09:12:54;;;;;;;67.65;60.33;;;;;;;11.14;100.00;99786.16;5024112;28;20053;-84
2022/11/23 09:15:22;;;;;;;64.78;57.92;;;;;;;11.16;100.00;99784.06;5026012;28;20111;-83
2022/11/23 09:17:50;;;;;;;63.72;56.53;;;;;;;11.16;100.00;99788.56;5023716;28;20127;-81
2022/11/23 09:20:17;;;;;;;64.63;55.40;;;;;;;11.06;100.00;99781.19;5026259;28;20061;-83
2022/11/23 09:22:49;;;;;;;72.35;59.20;;;;;;;11.14;100.00;99778.19;5028612;28;20152;-80
2022/11/23 09:25:16;;;;;;;60.20;53.70;;;;;;;11.13;100.00;99783.72;5023633;28;20045;-84
2022/11/23 09:27:43;;;;;;;62.70;52.53;;;;;;;10.93;100.00;99771.59;5024182;28;20050;-81
2022/11/23 09:30:11;;;;;;;65.18;58.03;;;;;;;11.11;100.00;99764.56;5022292;28;20045;-80
2022/11/23 09:32:39;;;;;;;89.00;71.60;;;;;;;11.17;100.00;99766.28;5023773;28;20474;-80
2022/11/23 09:35:07;;;;;;;80.90;64.97;;;;;;;11.11;100.00;99768.03;5018918;28;20145;-84
2022/11/23 09:37:34;;;;;;;72.78;64.03;;;;;;;11.17;100.00;99771.59;5017199;28;20116;-84
2022/11/23 09:40:00;;;;;;;81.93;67.95;;;;;;;11.16;100.00;99770.75;5020220;28;20041;-80
2022/11/23 09:42:41;;;;;;;132.38;81.20;;;;;;;11.13;100.00;99765.91;5023872;28;20143;-81
2022/11/23 09:45:18;;;;;;;61.20;54.60;;;;;;;11.11;100.00;99772.53;5027173;28;20046;-83
2022/11/23 09:48:25;;;;;;;61.38;55.35;;;;;;;10.98;100.00;99779.69;5030492;28;20084;-80
2022/11/23 09:50:59;;;;;;;59.33;53.53;;;;;;;11.07;100.00;99771.34;5031935;28;20045;-83
2022/11/23 09:53:32;;;;;;;59.75;53.78;;;;;;;11.10;100.00;99774.34;5020036;28;20123;-81
2022/11/23 09:55:59;;;;;;;107.25;87.38;;;;;;;11.09;100.00;99767.44;5025674;28;20053;-83
2022/11/23 09:58:34;;;;;;;70.88;60.60;;;;;;;11.17;100.00;99768.94;5025728;28;20110;-83
2022/11/23 10:01:03;;;;;;;50.08;45.08;;;;;;;11.19;100.00;99769.50;5019322;28;20124;-84
2022/11/23 10:03:35;;;;;;;52.17;46.97;;;;;;;11.29;100.00;99756.44;5016313;28;20395;-83
2022/11/23 10:06:07;;;;;;;57.30;51.42;;;;;;;11.33;100.00;99748.81;5028949;28;20501;-81
2022/11/23 10:08:46;;;;;;;67.07;59.60;;;;;;;11.41;100.00;99745.78;5025382;28;20097;-83
2022/11/23 10:11:37;;;;;;;67.95;60.58;;;;;;;11.31;100.00;99749.03;5025166;28;20049;-83
2022/11/23 10:14:19;;;;;;;56.25;50.25;;;;;;;11.43;100.00;99744.50;5023177;28;20378;-80
2022/11/23 10:16:54;;;;;;;52.53;47.83;;;;;;;11.43;100.00;99741.03;5022410;28;20496;-83
2022/11/23 10:19:33;;;;;;;41.45;38.25;;;;;;;11.41;100.00;99741.28;5027099;28;20041;-83
2022/11/23 10:22:09;;;;;;;47.80;43.50;;;;;;;11.46;100.00;99740.56;5016769;28;20085;-83
2022/11/23 10:24:40;;;;;;;48.08;43.90;;;;;;;11.48;100.00;99738.47;5030934;28;20049;-84
2022/11/23 10:27:13;;;;;;;45.65;41.75;;;;;;;11.57;100.00;99755.69;5026699;28;20126;-81
2022/11/23 10:29:42;;;;;;;46.40;42.78;;;;;;;11.56;100.00;99756.72;5023151;28;20068;-80
2022/11/23 10:32:22;;;;;;;44.60;41.00;;;;;;;11.55;100.00;99756.97;5027016;28;20049;-81
2022/11/23 10:34:59;;;;;;;38.83;35.83;;;;;;;11.45;100.00;99761.03;5022170;28;20050;-81
2022/11/23 10:37:26;;;;;;;41.20;37.92;;;;;;;11.46;100.00;99756.50;5027640;28;20050;-83
2022/11/23 10:39:53;;;;;;;41.78;38.75;;;;;;;11.45;100.00;99754.91;5025428;28;20056;-83
2022/11/23 10:42:26;;;;;;;42.72;39.50;;;;;;;11.55;100.00;99755.09;5025823;28;20119;-83
2022/11/23 10:44:55;;;;;;;46.63;43.03;;;;;;;11.77;100.00;99752.63;5026111;28;20444;-84
2022/11/23 10:47:39;;;;;;;44.95;41.42;;;;;;;11.76;100.00;99744.88;5021101;28;20119;-83
2022/11/23 10:50:25;;;;;;;45.80;42.40;;;;;;;11.68;100.00;99738.09;5025252;28;20528;-82
2022/11/23 10:52:54;;;;;;;41.38;38.47;;;;;;;11.67;100.00;99737.25;5027549;28;20115;-83
2022/11/23 10:55:26;;;;;;;43.42;40.10;;;;;;;11.85;100.00;99732.84;5026120;28;20060;-83
2022/11/23 10:57:53;;;;;;;44.73;41.63;;;;;;;11.76;100.00;99727.03;5023139;28;20057;-84
2022/11/23 11:00:22;;;;;;;44.97;41.67;;;;;;;11.91;100.00;99732.69;5020855;28;20042;-81
2022/11/23 11:02:51;;;;;;;42.83;39.40;;;;;;;11.74;100.00;99726.50;5017084;28;20049;-83
2022/11/23 11:05:31;;;;;;;41.28;38.38;;;;;;;11.73;100.00;99732.84;5022426;28;20062;-85
2022/11/23 11:08:01;;;;;;;44.13;40.85;;;;;;;11.75;100.00;99743.25;5018646;28;20068;-81
2022/11/23 11:10:34;;;;;;;40.33;37.42;;;;;;;11.72;100.00;99725.91;5022989;28;20061;-81
2022/11/23 11:13:01;;;;;;;43.70;40.33;;;;;;;11.77;100.00;99727.84;5024370;28;20485;-83
2022/11/23 11:15:28;;;;;;;43.85;40.53;;;;;;;11.78;100.00;99727.63;5024498;28;20053;-81
2022/11/23 11:17:56;;;;;;;43.95;40.88;;;;;;;11.96;100.00;99726.66;5026906;28;20203;-83
2022/11/23 11:20:36;;;;;;;42.28;38.90;;;;;;;11.84;100.00;99726.69;5019767;28;20088;-83